sensor_id;sensor_type;location;lat;lon;timestamp;temperature;humidity
25512;DHT22;13414;44.534;18.700;2023-02-01T00:00:03;1.40;99.90
25512;DHT22;13414;44.534;18.700;2023-02-01T00:02:31;1.40;99.90
25512;DHT22;13414;44.534;18.700;2023-02-01T00:04:58;1.40;99.90
25512;DHT22;13414;44.534;18.700;2023-02-01T00:07:26;1.40;99.90
25512;DHT22;13414;44.534;18.700;2023-02-01T00:09:54;1.50;99.90
25512;DHT22;13414;44.534;18.700;2023-02-01T00:12:22;1.60;99.90
25512;DHT22;13414;44.534;18.700;2023-02-01T00:14:49;1.60;99.90
25512;DHT22;13414;44.534;18.700;2023-02-01T00:17:17;1.70;99.90
25512;DHT22;13414;44.534;18.700;2023-02-01T00:19:45;1.70;96.90
25512;DHT22;13414;44.534;18.700;2023-02-01T00:22:12;1.70;1.00
25512;DHT22;13414;44.534;18.700;2023-02-01T00:24:39;1.70;1.00
25512;DHT22;13414;44.534;18.700;2023-02-01T00:27:08;1.70;99.90
25512;DHT22;13414;44.534;18.700;2023-02-01T00:29:36;1.70;31.10
25512;DHT22;13414;44.534;18.700;2023-02-01T00:32:04;1.70;99.90
25512;DHT22;13414;44.534;18.700;2023-02-01T00:34:31;1.70;1.00
25512;DHT22;13414;44.534;18.700;2023-02-01T00:36:58;1.70;99.90
25512;DHT22;13414;44.534;18.700;2023-02-01T00:39:26;1.70;1.00
25512;DHT22;13414;44.534;18.700;2023-02-01T00:41:53;1.70;1.00
25512;DHT22;13414;44.534;18.700;2023-02-01T00:44:22;1.70;1.00
25512;DHT22;13414;44.534;18.700;2023-02-01T00:46:49;1.80;1.00
25512;DHT22;13414;44.534;18.700;2023-02-01T00:49:17;1.90;1.00
25512;DHT22;13414;44.534;18.700;2023-02-01T00:51:44;1.80;1.00
25512;DHT22;13414;44.534;18.700;2023-02-01T00:54:12;1.60;1.00
25512;DHT22;13414;44.534;18.700;2023-02-01T00:56:40;1.60;1.00
25512;DHT22;13414;44.534;18.700;2023-02-01T00:59:10;1.60;1.00
25512;DHT22;13414;44.534;18.700;2023-02-01T01:01:40;1.60;1.00
25512;DHT22;13414;44.534;18.700;2023-02-01T01:04:07;1.70;1.00
25512;DHT22;13414;44.534;18.700;2023-02-01T01:06:35;1.70;1.00
25512;DHT22;13414;44.534;18.700;2023-02-01T01:09:05;1.80;1.00
25512;DHT22;13414;44.534;18.700;2023-02-01T01:11:35;1.90;99.90
25512;DHT22;13414;44.534;18.700;2023-02-01T01:14:06;1.90;1.00
25512;DHT22;13414;44.534;18.700;2023-02-01T01:16:35;2.00;1.00
25512;DHT22;13414;44.534;18.700;2023-02-01T01:19:04;1.90;1.00
25512;DHT22;13414;44.534;18.700;2023-02-01T01:21:32;1.90;1.00
25512;DHT22;13414;44.534;18.700;2023-02-01T01:24:00;2.00;1.00
25512;DHT22;13414;44.534;18.700;2023-02-01T01:26:29;1.90;90.80
25512;DHT22;13414;44.534;18.700;2023-02-01T01:28:57;1.90;1.00
25512;DHT22;13414;44.534;18.700;2023-02-01T01:31:25;1.80;1.00
25512;DHT22;13414;44.534;18.700;2023-02-01T01:33:55;1.70;1.00
25512;DHT22;13414;44.534;18.700;2023-02-01T01:36:25;1.70;1.00
25512;DHT22;13414;44.534;18.700;2023-02-01T01:38:53;1.80;60.00
25512;DHT22;13414;44.534;18.700;2023-02-01T01:41:22;1.70;99.90
25512;DHT22;13414;44.534;18.700;2023-02-01T01:43:54;1.70;99.90
25512;DHT22;13414;44.534;18.700;2023-02-01T01:46:24;1.70;99.90
25512;DHT22;13414;44.534;18.700;2023-02-01T01:49:00;1.70;1.00
25512;DHT22;13414;44.534;18.700;2023-02-01T01:51:31;1.70;1.00
25512;DHT22;13414;44.534;18.700;2023-02-01T01:54:03;1.70;1.00
25512;DHT22;13414;44.534;18.700;2023-02-01T01:56:32;1.70;1.00
25512;DHT22;13414;44.534;18.700;2023-02-01T01:59:01;1.80;1.00
25512;DHT22;13414;44.534;18.700;2023-02-01T02:01:29;1.80;1.00
25512;DHT22;13414;44.534;18.700;2023-02-01T02:03:57;1.90;1.00
25512;DHT22;13414;44.534;18.700;2023-02-01T02:06:38;1.90;99.90
25512;DHT22;13414;44.534;18.700;2023-02-01T02:09:07;1.90;1.00
25512;DHT22;13414;44.534;18.700;2023-02-01T02:11:35;1.90;1.00
25512;DHT22;13414;44.534;18.700;2023-02-01T02:14:04;1.90;1.00
25512;DHT22;13414;44.534;18.700;2023-02-01T02:16:40;1.90;99.90
25512;DHT22;13414;44.534;18.700;2023-02-01T02:25:51;1.70;1.00
25512;DHT22;13414;44.534;18.700;2023-02-01T02:28:45;1.70;99.90
25512;DHT22;13414;44.534;18.700;2023-02-01T02:31:46;1.70;99.90
25512;DHT22;13414;44.534;18.700;2023-02-01T02:34:25;1.80;1.00
25512;DHT22;13414;44.534;18.700;2023-02-01T02:37:03;1.90;1.00
25512;DHT22;13414;44.534;18.700;2023-02-01T02:39:41;1.90;28.00
25512;DHT22;13414;44.534;18.700;2023-02-01T02:42:14;1.90;1.00
25512;DHT22;13414;44.534;18.700;2023-02-01T02:45:05;2.00;34.60
25512;DHT22;13414;44.534;18.700;2023-02-01T02:47:57;2.00;99.90
25512;DHT22;13414;44.534;18.700;2023-02-01T02:50:34;2.00;10.80
25512;DHT22;13414;44.534;18.700;2023-02-01T02:53:23;1.90;1.00
25512;DHT22;13414;44.534;18.700;2023-02-01T02:56:10;1.90;1.00
25512;DHT22;13414;44.534;18.700;2023-02-01T02:58:56;1.70;1.00
25512;DHT22;13414;44.534;18.700;2023-02-01T03:01:43;1.60;99.90
25512;DHT22;13414;44.534;18.700;2023-02-01T03:04:28;1.60;1.00
25512;DHT22;13414;44.534;18.700;2023-02-01T03:06:57;1.50;1.00
25512;DHT22;13414;44.534;18.700;2023-02-01T03:09:27;1.60;1.00
25512;DHT22;13414;44.534;18.700;2023-02-01T03:12:01;1.70;99.90
25512;DHT22;13414;44.534;18.700;2023-02-01T03:14:51;1.70;99.90
25512;DHT22;13414;44.534;18.700;2023-02-01T03:17:22;1.80;99.90
25512;DHT22;13414;44.534;18.700;2023-02-01T03:19:53;1.80;62.00
25512;DHT22;13414;44.534;18.700;2023-02-01T03:22:24;1.80;1.00
25512;DHT22;13414;44.534;18.700;2023-02-01T03:24:55;1.80;1.00
25512;DHT22;13414;44.534;18.700;2023-02-01T03:27:27;1.80;1.00
25512;DHT22;13414;44.534;18.700;2023-02-01T03:30:06;1.80;99.90
25512;DHT22;13414;44.534;18.700;2023-02-01T03:32:36;1.90;1.00
25512;DHT22;13414;44.534;18.700;2023-02-01T03:35:23;1.90;99.90
25512;DHT22;13414;44.534;18.700;2023-02-01T03:37:56;1.90;1.00
25512;DHT22;13414;44.534;18.700;2023-02-01T03:40:28;1.90;99.90
25512;DHT22;13414;44.534;18.700;2023-02-01T03:42:59;1.80;99.90
25512;DHT22;13414;44.534;18.700;2023-02-01T03:45:33;1.70;1.00
25512;DHT22;13414;44.534;18.700;2023-02-01T03:48:03;1.60;99.90
25512;DHT22;13414;44.534;18.700;2023-02-01T03:50:34;1.60;1.00
25512;DHT22;13414;44.534;18.700;2023-02-01T03:53:10;1.60;1.00
25512;DHT22;13414;44.534;18.700;2023-02-01T03:55:39;1.50;99.90
25512;DHT22;13414;44.534;18.700;2023-02-01T03:58:11;1.40;1.00
25512;DHT22;13414;44.534;18.700;2023-02-01T04:00:39;1.30;1.00
25512;DHT22;13414;44.534;18.700;2023-02-01T04:03:07;1.30;1.00
25512;DHT22;13414;44.534;18.700;2023-02-01T04:05:35;1.30;1.00
25512;DHT22;13414;44.534;18.700;2023-02-01T04:08:07;1.30;99.90
25512;DHT22;13414;44.534;18.700;2023-02-01T04:10:34;1.30;1.00
25512;DHT22;13414;44.534;18.700;2023-02-01T04:13:02;1.40;1.00
25512;DHT22;13414;44.534;18.700;2023-02-01T04:15:29;1.40;1.00
25512;DHT22;13414;44.534;18.700;2023-02-01T04:17:56;1.40;1.00
25512;DHT22;13414;44.534;18.700;2023-02-01T04:20:24;1.50;99.90
25512;DHT22;13414;44.534;18.700;2023-02-01T04:22:51;1.50;1.00
25512;DHT22;13414;44.534;18.700;2023-02-01T04:25:20;1.60;99.90
25512;DHT22;13414;44.534;18.700;2023-02-01T04:27:49;1.60;1.00
25512;DHT22;13414;44.534;18.700;2023-02-01T04:30:17;1.60;16.50
25512;DHT22;13414;44.534;18.700;2023-02-01T04:32:44;1.60;1.00
25512;DHT22;13414;44.534;18.700;2023-02-01T04:35:12;1.60;99.90
25512;DHT22;13414;44.534;18.700;2023-02-01T04:37:40;1.70;1.00
25512;DHT22;13414;44.534;18.700;2023-02-01T04:40:08;1.60;1.00
25512;DHT22;13414;44.534;18.700;2023-02-01T04:42:37;1.60;1.00
25512;DHT22;13414;44.534;18.700;2023-02-01T04:45:06;1.60;1.00
25512;DHT22;13414;44.534;18.700;2023-02-01T04:47:34;1.60;1.00
25512;DHT22;13414;44.534;18.700;2023-02-01T04:50:02;1.70;1.00
25512;DHT22;13414;44.534;18.700;2023-02-01T04:52:29;1.60;99.90
25512;DHT22;13414;44.534;18.700;2023-02-01T04:54:57;1.70;99.90
25512;DHT22;13414;44.534;18.700;2023-02-01T04:57:26;1.70;99.90
25512;DHT22;13414;44.534;18.700;2023-02-01T04:59:55;1.70;26.60
25512;DHT22;13414;44.534;18.700;2023-02-01T05:02:22;1.70;1.00
25512;DHT22;13414;44.534;18.700;2023-02-01T05:04:50;1.70;1.00
25512;DHT22;13414;44.534;18.700;2023-02-01T05:07:17;1.70;99.90
25512;DHT22;13414;44.534;18.700;2023-02-01T05:09:45;1.70;99.90
25512;DHT22;13414;44.534;18.700;2023-02-01T05:12:12;1.70;99.90
25512;DHT22;13414;44.534;18.700;2023-02-01T05:14:58;1.70;1.00
25512;DHT22;13414;44.534;18.700;2023-02-01T05:17:26;1.70;3.00
25512;DHT22;13414;44.534;18.700;2023-02-01T05:19:53;1.70;99.90
25512;DHT22;13414;44.534;18.700;2023-02-01T05:22:21;1.60;1.00
25512;DHT22;13414;44.534;18.700;2023-02-01T05:24:48;1.50;1.00
25512;DHT22;13414;44.534;18.700;2023-02-01T05:27:15;1.40;99.90
25512;DHT22;13414;44.534;18.700;2023-02-01T05:29:43;1.30;1.00
25512;DHT22;13414;44.534;18.700;2023-02-01T05:32:12;1.30;99.90
25512;DHT22;13414;44.534;18.700;2023-02-01T05:34:39;1.30;1.00
25512;DHT22;13414;44.534;18.700;2023-02-01T05:37:11;1.30;1.00
25512;DHT22;13414;44.534;18.700;2023-02-01T05:39:39;1.40;1.00
25512;DHT22;13414;44.534;18.700;2023-02-01T05:42:06;1.40;1.00
25512;DHT22;13414;44.534;18.700;2023-02-01T05:44:33;1.50;1.00
25512;DHT22;13414;44.534;18.700;2023-02-01T05:47:01;1.60;99.90
25512;DHT22;13414;44.534;18.700;2023-02-01T05:49:30;1.60;1.00
25512;DHT22;13414;44.534;18.700;2023-02-01T05:51:57;1.60;1.00
25512;DHT22;13414;44.534;18.700;2023-02-01T05:54:25;1.60;1.00
25512;DHT22;13414;44.534;18.700;2023-02-01T05:56:53;1.50;99.90
25512;DHT22;13414;44.534;18.700;2023-02-01T05:59:20;1.50;99.90
25512;DHT22;13414;44.534;18.700;2023-02-01T06:01:48;1.50;1.00
25512;DHT22;13414;44.534;18.700;2023-02-01T06:04:15;1.50;1.00
25512;DHT22;13414;44.534;18.700;2023-02-01T06:06:44;1.50;1.00
25512;DHT22;13414;44.534;18.700;2023-02-01T06:09:12;1.50;1.00
25512;DHT22;13414;44.534;18.700;2023-02-01T06:11:40;1.40;1.00
25512;DHT22;13414;44.534;18.700;2023-02-01T06:14:07;1.40;1.00
25512;DHT22;13414;44.534;18.700;2023-02-01T06:16:35;1.40;1.00
25512;DHT22;13414;44.534;18.700;2023-02-01T06:19:02;1.40;1.00
25512;DHT22;13414;44.534;18.700;2023-02-01T06:21:30;1.30;1.00
25512;DHT22;13414;44.534;18.700;2023-02-01T06:23:59;1.40;82.10
25512;DHT22;13414;44.534;18.700;2023-02-01T06:26:26;1.30;1.00
25512;DHT22;13414;44.534;18.700;2023-02-01T06:28:54;1.40;99.90
25512;DHT22;13414;44.534;18.700;2023-02-01T06:31:22;1.40;1.00
25512;DHT22;13414;44.534;18.700;2023-02-01T06:33:52;1.50;1.00
25512;DHT22;13414;44.534;18.700;2023-02-01T06:36:19;1.50;1.00
25512;DHT22;13414;44.534;18.700;2023-02-01T06:38:48;1.50;99.90
25512;DHT22;13414;44.534;18.700;2023-02-01T06:41:17;1.60;99.90
25512;DHT22;13414;44.534;18.700;2023-02-01T06:43:48;1.70;99.90
25512;DHT22;13414;44.534;18.700;2023-02-01T06:46:15;1.80;1.00
25512;DHT22;13414;44.534;18.700;2023-02-01T06:48:43;1.90;99.90
25512;DHT22;13414;44.534;18.700;2023-02-01T06:51:23;2.00;1.00
25512;DHT22;13414;44.534;18.700;2023-02-01T06:53:50;2.00;99.90
25512;DHT22;13414;44.534;18.700;2023-02-01T06:56:19;2.10;1.00
25512;DHT22;13414;44.534;18.700;2023-02-01T06:58:48;2.20;99.90
25512;DHT22;13414;44.534;18.700;2023-02-01T07:01:16;2.20;99.90
25512;DHT22;13414;44.534;18.700;2023-02-01T07:03:47;2.30;1.00
25512;DHT22;13414;44.534;18.700;2023-02-01T07:06:15;2.40;1.00
25512;DHT22;13414;44.534;18.700;2023-02-01T07:08:43;2.50;99.90
25512;DHT22;13414;44.534;18.700;2023-02-01T07:11:12;2.50;1.00
25512;DHT22;13414;44.534;18.700;2023-02-01T07:13:41;2.50;1.00
25512;DHT22;13414;44.534;18.700;2023-02-01T07:16:11;2.50;99.90
25512;DHT22;13414;44.534;18.700;2023-02-01T07:18:39;2.40;1.00
25512;DHT22;13414;44.534;18.700;2023-02-01T07:21:06;2.40;99.90
25512;DHT22;13414;44.534;18.700;2023-02-01T07:23:34;2.40;99.90
25512;DHT22;13414;44.534;18.700;2023-02-01T07:26:03;2.20;99.90
25512;DHT22;13414;44.534;18.700;2023-02-01T07:28:33;2.10;1.00
25512;DHT22;13414;44.534;18.700;2023-02-01T07:31:06;2.10;1.00
25512;DHT22;13414;44.534;18.700;2023-02-01T07:33:34;2.10;1.00
25512;DHT22;13414;44.534;18.700;2023-02-01T07:36:03;2.20;1.00
25512;DHT22;13414;44.534;18.700;2023-02-01T07:38:31;2.40;1.00
25512;DHT22;13414;44.534;18.700;2023-02-01T07:40:59;2.60;1.00
25512;DHT22;13414;44.534;18.700;2023-02-01T07:43:26;2.70;1.00
25512;DHT22;13414;44.534;18.700;2023-02-01T07:45:54;3.00;99.90
25512;DHT22;13414;44.534;18.700;2023-02-01T07:48:24;3.10;1.00
25512;DHT22;13414;44.534;18.700;2023-02-01T07:50:57;3.40;1.00
25512;DHT22;13414;44.534;18.700;2023-02-01T07:53:29;3.70;1.00
25512;DHT22;13414;44.534;18.700;2023-02-01T07:55:56;4.00;99.90
25512;DHT22;13414;44.534;18.700;2023-02-01T07:58:24;4.20;99.90
25512;DHT22;13414;44.534;18.700;2023-02-01T08:00:52;4.30;56.10
25512;DHT22;13414;44.534;18.700;2023-02-01T08:03:38;4.50;45.90
25512;DHT22;13414;44.534;18.700;2023-02-01T08:06:06;4.50;1.00
25512;DHT22;13414;44.534;18.700;2023-02-01T08:08:34;4.40;1.00
25512;DHT22;13414;44.534;18.700;2023-02-01T08:11:03;4.50;1.00
25512;DHT22;13414;44.534;18.700;2023-02-01T08:13:33;4.40;1.00
25512;DHT22;13414;44.534;18.700;2023-02-01T08:16:01;4.30;1.00
25512;DHT22;13414;44.534;18.700;2023-02-01T08:18:29;4.10;1.00
25512;DHT22;13414;44.534;18.700;2023-02-01T08:21:03;4.00;35.90
25512;DHT22;13414;44.534;18.700;2023-02-01T08:23:31;3.90;99.90
25512;DHT22;13414;44.534;18.700;2023-02-01T08:26:05;4.10;99.90
25512;DHT22;13414;44.534;18.700;2023-02-01T08:28:33;4.30;99.90
25512;DHT22;13414;44.534;18.700;2023-02-01T08:31:04;4.40;41.60
25512;DHT22;13414;44.534;18.700;2023-02-01T08:33:33;4.60;1.00
25512;DHT22;13414;44.534;18.700;2023-02-01T08:36:04;4.60;1.00
25512;DHT22;13414;44.534;18.700;2023-02-01T08:38:32;4.60;1.00
25512;DHT22;13414;44.534;18.700;2023-02-01T08:41:05;4.50;1.00
25512;DHT22;13414;44.534;18.700;2023-02-01T08:43:32;4.50;1.00
25512;DHT22;13414;44.534;18.700;2023-02-01T08:46:00;4.50;1.00
25512;DHT22;13414;44.534;18.700;2023-02-01T08:48:27;4.70;1.00
25512;DHT22;13414;44.534;18.700;2023-02-01T08:50:55;4.70;1.00
25512;DHT22;13414;44.534;18.700;2023-02-01T08:53:24;4.80;1.00
25512;DHT22;13414;44.534;18.700;2023-02-01T08:55:51;4.90;1.00
25512;DHT22;13414;44.534;18.700;2023-02-01T08:58:19;5.00;1.00
25512;DHT22;13414;44.534;18.700;2023-02-01T09:00:48;4.90;1.00
25512;DHT22;13414;44.534;18.700;2023-02-01T09:03:17;4.80;1.00
25512;DHT22;13414;44.534;18.700;2023-02-01T09:05:48;4.90;1.00
25512;DHT22;13414;44.534;18.700;2023-02-01T09:08:15;5.10;1.00
25512;DHT22;13414;44.534;18.700;2023-02-01T09:10:46;5.10;1.00
25512;DHT22;13414;44.534;18.700;2023-02-01T09:13:13;5.20;1.00
25512;DHT22;13414;44.534;18.700;2023-02-01T09:15:41;5.40;1.00
25512;DHT22;13414;44.534;18.700;2023-02-01T09:18:08;5.50;1.00
25512;DHT22;13414;44.534;18.700;2023-02-01T09:20:37;5.60;1.00
25512;DHT22;13414;44.534;18.700;2023-02-01T09:23:05;5.70;1.00
25512;DHT22;13414;44.534;18.700;2023-02-01T09:25:33;5.80;1.00
25512;DHT22;13414;44.534;18.700;2023-02-01T09:28:02;6.00;1.00
25512;DHT22;13414;44.534;18.700;2023-02-01T09:30:32;6.20;1.00
25512;DHT22;13414;44.534;18.700;2023-02-01T09:32:59;6.30;1.00
25512;DHT22;13414;44.534;18.700;2023-02-01T09:35:27;6.40;1.00
25512;DHT22;13414;44.534;18.700;2023-02-01T09:37:54;6.50;1.00
25512;DHT22;13414;44.534;18.700;2023-02-01T09:40:22;6.60;1.00
25512;DHT22;13414;44.534;18.700;2023-02-01T09:43:03;6.70;1.00
25512;DHT22;13414;44.534;18.700;2023-02-01T09:45:40;6.90;1.00
25512;DHT22;13414;44.534;18.700;2023-02-01T09:48:14;7.00;1.00
25512;DHT22;13414;44.534;18.700;2023-02-01T09:50:48;7.20;1.00
25512;DHT22;13414;44.534;18.700;2023-02-01T09:53:22;7.30;1.00
25512;DHT22;13414;44.534;18.700;2023-02-01T09:55:55;7.50;1.00
25512;DHT22;13414;44.534;18.700;2023-02-01T09:58:29;7.70;1.00
25512;DHT22;13414;44.534;18.700;2023-02-01T10:01:02;7.90;1.00
25512;DHT22;13414;44.534;18.700;2023-02-01T10:03:32;8.20;1.00
25512;DHT22;13414;44.534;18.700;2023-02-01T10:06:23;8.50;1.00
25512;DHT22;13414;44.534;18.700;2023-02-01T10:09:08;8.80;1.00
25512;DHT22;13414;44.534;18.700;2023-02-01T10:11:46;9.00;1.00
25512;DHT22;13414;44.534;18.700;2023-02-01T10:14:44;9.10;1.00
25512;DHT22;13414;44.534;18.700;2023-02-01T10:17:21;9.50;1.00
25512;DHT22;13414;44.534;18.700;2023-02-01T10:19:57;9.90;1.00
25512;DHT22;13414;44.534;18.700;2023-02-01T10:22:38;10.20;1.00
25512;DHT22;13414;44.534;18.700;2023-02-01T10:25:14;10.40;1.00
25512;DHT22;13414;44.534;18.700;2023-02-01T10:27:45;10.60;1.00
25512;DHT22;13414;44.534;18.700;2023-02-01T10:30:20;10.70;1.00
25512;DHT22;13414;44.534;18.700;2023-02-01T10:32:49;10.70;1.00
25512;DHT22;13414;44.534;18.700;2023-02-01T10:35:24;10.70;1.00
25512;DHT22;13414;44.534;18.700;2023-02-01T10:37:54;10.60;1.00
25512;DHT22;13414;44.534;18.700;2023-02-01T10:40:24;10.70;1.00
25512;DHT22;13414;44.534;18.700;2023-02-01T10:42:54;10.80;1.00
25512;DHT22;13414;44.534;18.700;2023-02-01T10:45:27;10.60;1.00
25512;DHT22;13414;44.534;18.700;2023-02-01T10:47:56;10.50;1.00
25512;DHT22;13414;44.534;18.700;2023-02-01T10:50:33;10.60;1.00
25512;DHT22;13414;44.534;18.700;2023-02-01T10:53:05;10.50;1.00
25512;DHT22;13414;44.534;18.700;2023-02-01T10:55:38;10.70;1.00
25512;DHT22;13414;44.534;18.700;2023-02-01T10:58:07;10.70;99.90
25512;DHT22;13414;44.534;18.700;2023-02-01T11:00:42;10.70;99.90
25512;DHT22;13414;44.534;18.700;2023-02-01T11:03:34;10.60;99.90
25512;DHT22;13414;44.534;18.700;2023-02-01T11:06:20;10.70;99.90
25512;DHT22;13414;44.534;18.700;2023-02-01T11:08:51;10.80;99.90
25512;DHT22;13414;44.534;18.700;2023-02-01T11:11:19;10.80;99.90
25512;DHT22;13414;44.534;18.700;2023-02-01T11:13:53;10.90;99.90
25512;DHT22;13414;44.534;18.700;2023-02-01T11:16:29;10.90;99.90
25512;DHT22;13414;44.534;18.700;2023-02-01T11:18:58;10.90;99.90
25512;DHT22;13414;44.534;18.700;2023-02-01T11:21:26;10.90;99.90
25512;DHT22;13414;44.534;18.700;2023-02-01T11:23:53;11.10;99.90
25512;DHT22;13414;44.534;18.700;2023-02-01T11:26:23;11.20;99.90
25512;DHT22;13414;44.534;18.700;2023-02-01T11:28:54;11.20;99.90
25512;DHT22;13414;44.534;18.700;2023-02-01T11:31:29;11.30;99.90
25512;DHT22;13414;44.534;18.700;2023-02-01T11:34:08;11.50;99.90
25512;DHT22;13414;44.534;18.700;2023-02-01T11:36:43;11.60;99.90
25512;DHT22;13414;44.534;18.700;2023-02-01T11:39:30;11.90;99.90
25512;DHT22;13414;44.534;18.700;2023-02-01T11:42:28;12.10;99.90
25512;DHT22;13414;44.534;18.700;2023-02-01T11:45:25;12.20;99.90
25512;DHT22;13414;44.534;18.700;2023-02-01T11:48:18;12.30;99.90
25512;DHT22;13414;44.534;18.700;2023-02-01T11:51:15;12.20;99.90
25512;DHT22;13414;44.534;18.700;2023-02-01T11:55:27;11.90;99.90
25512;DHT22;13414;44.534;18.700;2023-02-01T11:58:45;11.60;99.90
25512;DHT22;13414;44.534;18.700;2023-02-01T12:01:28;11.70;99.90
25512;DHT22;13414;44.534;18.700;2023-02-01T12:04:12;11.70;99.90
25512;DHT22;13414;44.534;18.700;2023-02-01T12:06:48;11.90;99.90
25512;DHT22;13414;44.534;18.700;2023-02-01T12:09:34;12.10;99.90
25512;DHT22;13414;44.534;18.700;2023-02-01T12:12:12;12.20;99.90
25512;DHT22;13414;44.534;18.700;2023-02-01T12:14:56;12.30;99.90
25512;DHT22;13414;44.534;18.700;2023-02-01T12:17:53;12.20;99.90
25512;DHT22;13414;44.534;18.700;2023-02-01T12:20:47;12.10;99.90
25512;DHT22;13414;44.534;18.700;2023-02-01T12:23:27;12.10;99.90
25512;DHT22;13414;44.534;18.700;2023-02-01T12:26:13;12.10;99.90
25512;DHT22;13414;44.534;18.700;2023-02-01T12:29:07;12.00;99.90
25512;DHT22;13414;44.534;18.700;2023-02-01T12:31:51;12.00;99.90
25512;DHT22;13414;44.534;18.700;2023-02-01T12:34:45;12.00;99.90
25512;DHT22;13414;44.534;18.700;2023-02-01T12:37:20;11.90;99.90
25512;DHT22;13414;44.534;18.700;2023-02-01T12:40:02;11.60;99.90
25512;DHT22;13414;44.534;18.700;2023-02-01T12:42:39;11.60;99.90
25512;DHT22;13414;44.534;18.700;2023-02-01T12:45:13;11.70;99.90
25512;DHT22;13414;44.534;18.700;2023-02-01T12:47:49;11.80;99.90
25512;DHT22;13414;44.534;18.700;2023-02-01T12:50:21;11.90;99.90
25512;DHT22;13414;44.534;18.700;2023-02-01T12:52:54;11.90;99.90
25512;DHT22;13414;44.534;18.700;2023-02-01T12:55:25;12.00;99.90
25512;DHT22;13414;44.534;18.700;2023-02-01T12:57:57;11.90;99.90
25512;DHT22;13414;44.534;18.700;2023-02-01T13:00:30;11.70;99.90
25512;DHT22;13414;44.534;18.700;2023-02-01T13:03:03;11.70;99.90
25512;DHT22;13414;44.534;18.700;2023-02-01T13:05:39;11.60;99.90
25512;DHT22;13414;44.534;18.700;2023-02-01T13:08:14;11.60;99.90
25512;DHT22;13414;44.534;18.700;2023-02-01T13:10:46;11.60;99.90
25512;DHT22;13414;44.534;18.700;2023-02-01T13:13:18;11.60;99.90
25512;DHT22;13414;44.534;18.700;2023-02-01T13:15:49;11.60;99.90
25512;DHT22;13414;44.534;18.700;2023-02-01T13:18:24;11.60;99.90
25512;DHT22;13414;44.534;18.700;2023-02-01T13:20:58;11.50;99.90
25512;DHT22;13414;44.534;18.700;2023-02-01T13:23:32;11.50;99.90
25512;DHT22;13414;44.534;18.700;2023-02-01T13:26:01;11.40;99.90
25512;DHT22;13414;44.534;18.700;2023-02-01T13:28:34;11.40;99.90
25512;DHT22;13414;44.534;18.700;2023-02-01T13:34:16;11.40;99.90
25512;DHT22;13414;44.534;18.700;2023-02-01T13:37:05;11.20;99.90
25512;DHT22;13414;44.534;18.700;2023-02-01T13:39:56;11.00;99.90
25512;DHT22;13414;44.534;18.700;2023-02-01T13:42:28;11.00;99.90
25512;DHT22;13414;44.534;18.700;2023-02-01T13:44:58;11.00;99.90
25512;DHT22;13414;44.534;18.700;2023-02-01T13:47:30;11.00;99.90
25512;DHT22;13414;44.534;18.700;2023-02-01T13:50:01;10.80;99.90
25512;DHT22;13414;44.534;18.700;2023-02-01T13:52:35;10.80;99.90
25512;DHT22;13414;44.534;18.700;2023-02-01T13:55:22;10.90;99.90
25512;DHT22;13414;44.534;18.700;2023-02-01T13:57:52;11.00;99.90
25512;DHT22;13414;44.534;18.700;2023-02-01T14:00:27;11.00;99.90
25512;DHT22;13414;44.534;18.700;2023-02-01T14:03:21;10.90;99.90
25512;DHT22;13414;44.534;18.700;2023-02-01T14:09:33;10.80;99.90
25512;DHT22;13414;44.534;18.700;2023-02-01T14:12:44;10.80;99.90
25512;DHT22;13414;44.534;18.700;2023-02-01T14:15:26;10.80;99.90
25512;DHT22;13414;44.534;18.700;2023-02-01T14:17:55;10.80;99.90
25512;DHT22;13414;44.534;18.700;2023-02-01T14:20:43;10.80;99.90
25512;DHT22;13414;44.534;18.700;2023-02-01T14:23:26;10.70;99.90
25512;DHT22;13414;44.534;18.700;2023-02-01T14:26:18;10.70;99.90
25512;DHT22;13414;44.534;18.700;2023-02-01T14:29:03;10.60;99.90
25512;DHT22;13414;44.534;18.700;2023-02-01T14:31:46;10.50;99.90
25512;DHT22;13414;44.534;18.700;2023-02-01T14:34:19;10.40;99.90
25512;DHT22;13414;44.534;18.700;2023-02-01T14:36:51;10.30;99.90
25512;DHT22;13414;44.534;18.700;2023-02-01T14:39:22;10.20;99.90
25512;DHT22;13414;44.534;18.700;2023-02-01T14:41:54;10.10;99.90
25512;DHT22;13414;44.534;18.700;2023-02-01T14:44:36;10.10;99.90
25512;DHT22;13414;44.534;18.700;2023-02-01T14:47:29;10.00;99.90
25512;DHT22;13414;44.534;18.700;2023-02-01T14:53:17;9.90;99.90
25512;DHT22;13414;44.534;18.700;2023-02-01T14:55:58;9.90;99.90
25512;DHT22;13414;44.534;18.700;2023-02-01T14:58:35;9.80;99.90
25512;DHT22;13414;44.534;18.700;2023-02-01T15:01:17;9.70;99.90
25512;DHT22;13414;44.534;18.700;2023-02-01T15:03:52;9.60;1.00
25512;DHT22;13414;44.534;18.700;2023-02-01T15:06:25;9.60;1.00
25512;DHT22;13414;44.534;18.700;2023-02-01T15:08:55;9.50;1.00
25512;DHT22;13414;44.534;18.700;2023-02-01T15:11:24;9.40;1.00
25512;DHT22;13414;44.534;18.700;2023-02-01T15:13:52;9.30;1.00
25512;DHT22;13414;44.534;18.700;2023-02-01T15:16:25;9.20;1.00
25512;DHT22;13414;44.534;18.700;2023-02-01T15:19:07;9.10;1.00
25512;DHT22;13414;44.534;18.700;2023-02-01T15:21:46;8.90;1.00
25512;DHT22;13414;44.534;18.700;2023-02-01T15:24:18;8.80;1.00
25512;DHT22;13414;44.534;18.700;2023-02-01T15:26:48;8.70;1.00
25512;DHT22;13414;44.534;18.700;2023-02-01T15:29:20;8.60;1.00
25512;DHT22;13414;44.534;18.700;2023-02-01T15:31:51;8.40;1.00
25512;DHT22;13414;44.534;18.700;2023-02-01T15:34:20;8.40;1.00
25512;DHT22;13414;44.534;18.700;2023-02-01T15:36:48;8.30;1.00
25512;DHT22;13414;44.534;18.700;2023-02-01T15:39:19;8.30;1.00
25512;DHT22;13414;44.534;18.700;2023-02-01T15:41:54;8.20;1.00
25512;DHT22;13414;44.534;18.700;2023-02-01T15:44:33;8.10;1.00
25512;DHT22;13414;44.534;18.700;2023-02-01T15:47:16;8.10;1.00
25512;DHT22;13414;44.534;18.700;2023-02-01T15:49:47;8.00;1.00
25512;DHT22;13414;44.534;18.700;2023-02-01T15:52:23;7.90;1.00
25512;DHT22;13414;44.534;18.700;2023-02-01T15:54:53;7.90;1.00
25512;DHT22;13414;44.534;18.700;2023-02-01T15:57:26;7.80;1.00
25512;DHT22;13414;44.534;18.700;2023-02-01T15:59:58;7.70;1.00
25512;DHT22;13414;44.534;18.700;2023-02-01T16:02:34;7.60;1.00
25512;DHT22;13414;44.534;18.700;2023-02-01T16:05:04;7.50;1.00
25512;DHT22;13414;44.534;18.700;2023-02-01T16:07:33;7.50;1.00
25512;DHT22;13414;44.534;18.700;2023-02-01T16:10:21;7.40;1.00
25512;DHT22;13414;44.534;18.700;2023-02-01T16:12:49;7.30;1.00
25512;DHT22;13414;44.534;18.700;2023-02-01T16:15:20;7.20;1.00
25512;DHT22;13414;44.534;18.700;2023-02-01T16:17:49;7.10;1.00
25512;DHT22;13414;44.534;18.700;2023-02-01T16:20:16;7.10;1.00
25512;DHT22;13414;44.534;18.700;2023-02-01T16:22:44;7.00;1.00
25512;DHT22;13414;44.534;18.700;2023-02-01T16:25:11;6.90;1.00
25512;DHT22;13414;44.534;18.700;2023-02-01T16:27:39;6.90;1.00